sensor_id;sensor_type;location;lat;lon;timestamp;P1;durP1;ratioP1;P2;durP2;ratioP2
18789;SDS011;9523;42.650;23.386;2022-12-24T00:01:35;13.83;;;7.40;;
18789;SDS011;9523;42.650;23.386;2022-12-24T00:04:06;12.50;;;7.10;;
18789;SDS011;9523;42.650;23.386;2022-12-24T00:06:34;11.47;;;7.03;;
18789;SDS011;9523;42.650;23.386;2022-12-24T00:09:00;13.33;;;7.87;;
18789;SDS011;9523;42.650;23.386;2022-12-24T00:11:27;11.63;;;6.63;;
18789;SDS011;9523;42.650;23.386;2022-12-24T00:13:55;9.00;;;5.67;;
18789;SDS011;9523;42.650;23.386;2022-12-24T00:16:23;12.83;;;6.50;;
18789;SDS011;9523;42.650;23.386;2022-12-24T00:18:49;11.50;;;6.07;;
18789;SDS011;9523;42.650;23.386;2022-12-24T00:21:17;10.60;;;6.77;;
18789;SDS011;9523;42.650;23.386;2022-12-24T00:23:44;10.17;;;6.70;;
18789;SDS011;9523;42.650;23.386;2022-12-24T00:26:11;10.80;;;6.10;;
18789;SDS011;9523;42.650;23.386;2022-12-24T00:28:39;9.80;;;5.83;;
18789;SDS011;9523;42.650;23.386;2022-12-24T00:31:09;10.83;;;6.43;;
18789;SDS011;9523;42.650;23.386;2022-12-24T00:33:38;10.83;;;5.87;;
18789;SDS011;9523;42.650;23.386;2022-12-24T00:36:06;10.00;;;6.57;;
18789;SDS011;9523;42.650;23.386;2022-12-24T00:38:35;11.30;;;6.70;;
18789;SDS011;9523;42.650;23.386;2022-12-24T00:41:03;81.97;;;30.13;;
18789;SDS011;9523;42.650;23.386;2022-12-24T00:43:48;155.47;;;56.93;;
18789;SDS011;9523;42.650;23.386;2022-12-24T00:46:15;11.87;;;6.73;;
18789;SDS011;9523;42.650;23.386;2022-12-24T00:48:42;11.23;;;6.93;;
18789;SDS011;9523;42.650;23.386;2022-12-24T00:51:09;9.20;;;6.20;;
18789;SDS011;9523;42.650;23.386;2022-12-24T00:53:38;12.10;;;7.00;;
18789;SDS011;9523;42.650;23.386;2022-12-24T00:56:06;11.97;;;6.60;;
18789;SDS011;9523;42.650;23.386;2022-12-24T00:58:33;10.70;;;7.40;;
18789;SDS011;9523;42.650;23.386;2022-12-24T01:01:00;13.27;;;6.90;;
18789;SDS011;9523;42.650;23.386;2022-12-24T01:03:27;11.03;;;6.77;;
18789;SDS011;9523;42.650;23.386;2022-12-24T01:06:00;11.37;;;6.60;;
18789;SDS011;9523;42.650;23.386;2022-12-24T01:08:26;11.93;;;7.17;;
18789;SDS011;9523;42.650;23.386;2022-12-24T01:10:54;13.17;;;7.40;;
18789;SDS011;9523;42.650;23.386;2022-12-24T01:13:21;13.70;;;7.53;;
18789;SDS011;9523;42.650;23.386;2022-12-24T01:15:48;15.33;;;7.87;;
18789;SDS011;9523;42.650;23.386;2022-12-24T01:18:17;11.73;;;7.33;;
18789;SDS011;9523;42.650;23.386;2022-12-24T01:20:44;13.27;;;7.60;;
18789;SDS011;9523;42.650;23.386;2022-12-24T01:23:11;12.33;;;7.20;;
18789;SDS011;9523;42.650;23.386;2022-12-24T01:25:38;10.47;;;7.20;;
18789;SDS011;9523;42.650;23.386;2022-12-24T01:28:06;16.50;;;8.10;;
18789;SDS011;9523;42.650;23.386;2022-12-24T01:30:33;12.77;;;7.60;;
18789;SDS011;9523;42.650;23.386;2022-12-24T01:33:00;13.00;;;7.57;;
18789;SDS011;9523;42.650;23.386;2022-12-24T01:35:26;12.23;;;7.37;;
18789;SDS011;9523;42.650;23.386;2022-12-24T01:37:53;11.50;;;7.00;;
18789;SDS011;9523;42.650;23.386;2022-12-24T01:40:20;10.57;;;7.53;;
18789;SDS011;9523;42.650;23.386;2022-12-24T01:43:09;10.40;;;7.00;;
18789;SDS011;9523;42.650;23.386;2022-12-24T01:45:53;14.03;;;7.43;;
18789;SDS011;9523;42.650;23.386;2022-12-24T01:48:23;12.73;;;7.30;;
18789;SDS011;9523;42.650;23.386;2022-12-24T01:50:58;14.93;;;7.73;;
18789;SDS011;9523;42.650;23.386;2022-12-24T01:53:28;13.03;;;7.47;;
18789;SDS011;9523;42.650;23.386;2022-12-24T01:55:56;13.23;;;8.13;;
18789;SDS011;9523;42.650;23.386;2022-12-24T01:58:25;14.70;;;7.67;;
18789;SDS011;9523;42.650;23.386;2022-12-24T02:00:52;13.70;;;8.57;;
18789;SDS011;9523;42.650;23.386;2022-12-24T02:03:19;11.07;;;8.30;;
18789;SDS011;9523;42.650;23.386;2022-12-24T02:05:47;18.30;;;8.63;;
18789;SDS011;9523;42.650;23.386;2022-12-24T02:08:16;13.63;;;8.27;;
18789;SDS011;9523;42.650;23.386;2022-12-24T02:10:43;13.90;;;8.70;;
18789;SDS011;9523;42.650;23.386;2022-12-24T02:13:11;13.50;;;8.17;;
18789;SDS011;9523;42.650;23.386;2022-12-24T02:15:47;15.33;;;9.23;;
18789;SDS011;9523;42.650;23.386;2022-12-24T02:18:25;19.30;;;10.80;;
18789;SDS011;9523;42.650;23.386;2022-12-24T02:21:12;17.30;;;9.50;;
18789;SDS011;9523;42.650;23.386;2022-12-24T02:27:10;14.00;;;9.33;;
18789;SDS011;9523;42.650;23.386;2022-12-24T02:29:52;16.80;;;8.33;;
18789;SDS011;9523;42.650;23.386;2022-12-24T02:32:36;13.87;;;8.30;;
18789;SDS011;9523;42.650;23.386;2022-12-24T02:35:11;15.20;;;8.80;;
18789;SDS011;9523;42.650;23.386;2022-12-24T02:37:42;16.40;;;9.17;;
18789;SDS011;9523;42.650;23.386;2022-12-24T02:40:14;22.23;;;12.43;;
18789;SDS011;9523;42.650;23.386;2022-12-24T02:42:45;31.40;;;15.03;;
18789;SDS011;9523;42.650;23.386;2022-12-24T02:45:17;17.43;;;10.10;;
18789;SDS011;9523;42.650;23.386;2022-12-24T02:47:48;28.03;;;15.33;;
18789;SDS011;9523;42.650;23.386;2022-12-24T02:50:17;18.77;;;11.87;;
18789;SDS011;9523;42.650;23.386;2022-12-24T02:52:45;34.00;;;16.87;;
18789;SDS011;9523;42.650;23.386;2022-12-24T02:55:16;25.17;;;14.43;;
18789;SDS011;9523;42.650;23.386;2022-12-24T02:57:59;29.67;;;16.83;;
18789;SDS011;9523;42.650;23.386;2022-12-24T03:00:39;27.10;;;14.40;;
18789;SDS011;9523;42.650;23.386;2022-12-24T03:03:28;27.20;;;14.90;;
18789;SDS011;9523;42.650;23.386;2022-12-24T03:06:04;20.07;;;11.70;;
18789;SDS011;9523;42.650;23.386;2022-12-24T03:08:40;22.93;;;11.63;;
18789;SDS011;9523;42.650;23.386;2022-12-24T03:11:14;20.23;;;11.27;;
18789;SDS011;9523;42.650;23.386;2022-12-24T03:13:41;22.67;;;12.57;;
18789;SDS011;9523;42.650;23.386;2022-12-24T03:16:11;20.20;;;11.50;;
18789;SDS011;9523;42.650;23.386;2022-12-24T03:18:42;21.57;;;12.03;;
18789;SDS011;9523;42.650;23.386;2022-12-24T03:21:15;23.83;;;12.33;;
18789;SDS011;9523;42.650;23.386;2022-12-24T03:23:45;22.77;;;12.13;;
18789;SDS011;9523;42.650;23.386;2022-12-24T03:26:13;21.13;;;12.07;;
18789;SDS011;9523;42.650;23.386;2022-12-24T03:28:42;21.73;;;12.43;;
18789;SDS011;9523;42.650;23.386;2022-12-24T03:31:12;20.80;;;11.90;;
18789;SDS011;9523;42.650;23.386;2022-12-24T03:33:40;24.97;;;13.07;;
18789;SDS011;9523;42.650;23.386;2022-12-24T03:36:08;21.03;;;11.50;;
18789;SDS011;9523;42.650;23.386;2022-12-24T03:38:36;20.80;;;12.53;;
18789;SDS011;9523;42.650;23.386;2022-12-24T03:41:03;18.97;;;12.23;;
18789;SDS011;9523;42.650;23.386;2022-12-24T03:43:30;19.57;;;10.70;;
18789;SDS011;9523;42.650;23.386;2022-12-24T03:45:57;14.60;;;7.87;;
18789;SDS011;9523;42.650;23.386;2022-12-24T03:48:29;14.07;;;8.73;;
18789;SDS011;9523;42.650;23.386;2022-12-24T03:50:58;15.03;;;7.97;;
18789;SDS011;9523;42.650;23.386;2022-12-24T03:53:24;14.23;;;7.87;;
18789;SDS011;9523;42.650;23.386;2022-12-24T03:55:51;13.33;;;9.10;;
18789;SDS011;9523;42.650;23.386;2022-12-24T03:58:18;12.67;;;7.97;;
18789;SDS011;9523;42.650;23.386;2022-12-24T04:00:45;13.53;;;8.00;;
18789;SDS011;9523;42.650;23.386;2022-12-24T04:03:12;15.17;;;7.87;;
18789;SDS011;9523;42.650;23.386;2022-12-24T04:05:40;12.93;;;7.83;;
18789;SDS011;9523;42.650;23.386;2022-12-24T04:08:07;13.10;;;7.30;;
18789;SDS011;9523;42.650;23.386;2022-12-24T04:10:33;16.27;;;8.23;;
18789;SDS011;9523;42.650;23.386;2022-12-24T04:13:00;12.63;;;6.63;;
18789;SDS011;9523;42.650;23.386;2022-12-24T04:15:27;9.50;;;6.60;;
18789;SDS011;9523;42.650;23.386;2022-12-24T04:17:54;12.57;;;7.37;;
18789;SDS011;9523;42.650;23.386;2022-12-24T04:20:21;11.33;;;6.50;;
18789;SDS011;9523;42.650;23.386;2022-12-24T04:22:49;12.37;;;7.07;;
18789;SDS011;9523;42.650;23.386;2022-12-24T04:25:17;11.83;;;6.60;;
18789;SDS011;9523;42.650;23.386;2022-12-24T04:27:44;11.17;;;6.80;;
18789;SDS011;9523;42.650;23.386;2022-12-24T04:30:11;12.40;;;7.13;;
18789;SDS011;9523;42.650;23.386;2022-12-24T04:32:38;10.67;;;6.70;;
18789;SDS011;9523;42.650;23.386;2022-12-24T04:35:05;12.90;;;6.60;;
18789;SDS011;9523;42.650;23.386;2022-12-24T04:37:32;15.23;;;7.03;;
18789;SDS011;9523;42.650;23.386;2022-12-24T04:40:01;14.67;;;7.87;;
18789;SDS011;9523;42.650;23.386;2022-12-24T04:42:28;11.30;;;7.20;;
18789;SDS011;9523;42.650;23.386;2022-12-24T04:44:54;14.87;;;7.27;;
18789;SDS011;9523;42.650;23.386;2022-12-24T04:47:21;16.37;;;9.10;;
18789;SDS011;9523;42.650;23.386;2022-12-24T04:49:48;21.33;;;10.53;;
18789;SDS011;9523;42.650;23.386;2022-12-24T04:52:15;17.23;;;9.87;;
18789;SDS011;9523;42.650;23.386;2022-12-24T04:54:42;22.57;;;11.67;;
18789;SDS011;9523;42.650;23.386;2022-12-24T04:57:10;25.60;;;13.63;;
18789;SDS011;9523;42.650;23.386;2022-12-24T04:59:36;29.30;;;14.70;;
18789;SDS011;9523;42.650;23.386;2022-12-24T05:02:03;21.97;;;12.83;;
18789;SDS011;9523;42.650;23.386;2022-12-24T05:04:30;22.57;;;13.37;;
18789;SDS011;9523;42.650;23.386;2022-12-24T05:06:57;20.67;;;11.73;;
18789;SDS011;9523;42.650;23.386;2022-12-24T05:09:24;22.30;;;11.93;;
18789;SDS011;9523;42.650;23.386;2022-12-24T05:11:50;26.50;;;14.27;;
18789;SDS011;9523;42.650;23.386;2022-12-24T05:14:20;20.20;;;12.10;;
18789;SDS011;9523;42.650;23.386;2022-12-24T05:16:47;24.87;;;12.57;;
18789;SDS011;9523;42.650;23.386;2022-12-24T05:19:14;24.30;;;10.93;;
18789;SDS011;9523;42.650;23.386;2022-12-24T05:21:40;18.87;;;10.97;;
18789;SDS011;9523;42.650;23.386;2022-12-24T05:24:09;19.70;;;10.07;;
18789;SDS011;9523;42.650;23.386;2022-12-24T05:27:01;16.33;;;8.80;;
18789;SDS011;9523;42.650;23.386;2022-12-24T05:29:30;13.53;;;8.23;;
18789;SDS011;9523;42.650;23.386;2022-12-24T05:31:57;14.83;;;8.53;;
18789;SDS011;9523;42.650;23.386;2022-12-24T05:34:24;12.30;;;7.80;;
18789;SDS011;9523;42.650;23.386;2022-12-24T05:36:53;14.90;;;8.83;;
18789;SDS011;9523;42.650;23.386;2022-12-24T05:39:20;15.07;;;8.40;;
18789;SDS011;9523;42.650;23.386;2022-12-24T05:41:47;14.60;;;8.27;;
18789;SDS011;9523;42.650;23.386;2022-12-24T05:44:14;14.43;;;8.83;;
18789;SDS011;9523;42.650;23.386;2022-12-24T05:46:43;12.83;;;7.70;;
18789;SDS011;9523;42.650;23.386;2022-12-24T05:49:10;15.50;;;9.27;;
18789;SDS011;9523;42.650;23.386;2022-12-24T05:51:37;15.10;;;8.50;;
18789;SDS011;9523;42.650;23.386;2022-12-24T05:54:04;10.77;;;6.40;;
18789;SDS011;9523;42.650;23.386;2022-12-24T05:56:31;13.60;;;7.53;;
18789;SDS011;9523;42.650;23.386;2022-12-24T05:58:58;12.13;;;8.07;;
18789;SDS011;9523;42.650;23.386;2022-12-24T06:01:27;11.43;;;7.47;;
18789;SDS011;9523;42.650;23.386;2022-12-24T06:03:55;11.03;;;6.70;;
18789;SDS011;9523;42.650;23.386;2022-12-24T06:06:23;11.77;;;6.70;;
18789;SDS011;9523;42.650;23.386;2022-12-24T06:08:53;11.00;;;6.73;;
18789;SDS011;9523;42.650;23.386;2022-12-24T06:11:21;11.17;;;6.43;;
18789;SDS011;9523;42.650;23.386;2022-12-24T06:13:49;11.60;;;5.50;;
18789;SDS011;9523;42.650;23.386;2022-12-24T06:16:18;8.70;;;5.47;;
18789;SDS011;9523;42.650;23.386;2022-12-24T06:18:48;9.80;;;5.77;;
18789;SDS011;9523;42.650;23.386;2022-12-24T06:21:16;12.63;;;6.73;;
18789;SDS011;9523;42.650;23.386;2022-12-24T06:23:44;12.27;;;7.20;;
18789;SDS011;9523;42.650;23.386;2022-12-24T06:26:13;12.80;;;7.50;;
18789;SDS011;9523;42.650;23.386;2022-12-24T06:28:41;13.53;;;7.03;;
18789;SDS011;9523;42.650;23.386;2022-12-24T06:31:10;12.47;;;7.00;;
18789;SDS011;9523;42.650;23.386;2022-12-24T06:33:38;15.40;;;7.13;;
18789;SDS011;9523;42.650;23.386;2022-12-24T06:36:05;10.47;;;6.50;;
18789;SDS011;9523;42.650;23.386;2022-12-24T06:38:34;21.33;;;12.90;;
18789;SDS011;9523;42.650;23.386;2022-12-24T06:41:03;37.03;;;19.57;;
18789;SDS011;9523;42.650;23.386;2022-12-24T06:43:31;40.27;;;22.00;;
18789;SDS011;9523;42.650;23.386;2022-12-24T06:45:58;36.47;;;19.70;;
18789;SDS011;9523;42.650;23.386;2022-12-24T06:48:27;31.87;;;17.53;;
18789;SDS011;9523;42.650;23.386;2022-12-24T06:50:54;35.80;;;20.47;;
18789;SDS011;9523;42.650;23.386;2022-12-24T06:53:20;38.87;;;22.87;;
18789;SDS011;9523;42.650;23.386;2022-12-24T06:55:49;49.73;;;26.13;;
18789;SDS011;9523;42.650;23.386;2022-12-24T06:58:16;47.23;;;26.10;;
18789;SDS011;9523;42.650;23.386;2022-12-24T07:00:43;49.23;;;26.77;;
18789;SDS011;9523;42.650;23.386;2022-12-24T07:03:12;41.80;;;22.23;;
18789;SDS011;9523;42.650;23.386;2022-12-24T07:05:39;43.33;;;22.17;;
18789;SDS011;9523;42.650;23.386;2022-12-24T07:08:07;44.87;;;22.47;;
18789;SDS011;9523;42.650;23.386;2022-12-24T07:10:34;35.10;;;21.17;;
18789;SDS011;9523;42.650;23.386;2022-12-24T07:13:02;36.27;;;20.53;;
18789;SDS011;9523;42.650;23.386;2022-12-24T07:15:29;32.87;;;18.23;;
18789;SDS011;9523;42.650;23.386;2022-12-24T07:17:56;35.77;;;19.03;;
18789;SDS011;9523;42.650;23.386;2022-12-24T07:20:23;29.73;;;18.20;;
18789;SDS011;9523;42.650;23.386;2022-12-24T07:22:50;28.30;;;16.73;;
18789;SDS011;9523;42.650;23.386;2022-12-24T07:25:16;30.17;;;18.83;;
18789;SDS011;9523;42.650;23.386;2022-12-24T07:27:43;26.33;;;15.63;;
18789;SDS011;9523;42.650;23.386;2022-12-24T07:30:12;29.43;;;17.17;;
18789;SDS011;9523;42.650;23.386;2022-12-24T07:32:39;28.50;;;16.57;;
18789;SDS011;9523;42.650;23.386;2022-12-24T07:35:06;26.70;;;16.10;;
18789;SDS011;9523;42.650;23.386;2022-12-24T07:37:34;29.63;;;16.97;;
18789;SDS011;9523;42.650;23.386;2022-12-24T07:40:01;28.53;;;16.37;;
18789;SDS011;9523;42.650;23.386;2022-12-24T07:42:30;27.13;;;16.77;;
18789;SDS011;9523;42.650;23.386;2022-12-24T07:44:57;29.00;;;16.63;;
18789;SDS011;9523;42.650;23.386;2022-12-24T07:47:25;28.80;;;17.00;;
18789;SDS011;9523;42.650;23.386;2022-12-24T07:49:52;28.97;;;16.70;;
18789;SDS011;9523;42.650;23.386;2022-12-24T07:52:19;30.70;;;16.50;;
18789;SDS011;9523;42.650;23.386;2022-12-24T07:54:45;28.37;;;15.77;;
18789;SDS011;9523;42.650;23.386;2022-12-24T07:57:12;24.90;;;14.40;;
18789;SDS011;9523;42.650;23.386;2022-12-24T07:59:39;23.03;;;12.00;;
18789;SDS011;9523;42.650;23.386;2022-12-24T08:02:07;20.43;;;12.23;;
18789;SDS011;9523;42.650;23.386;2022-12-24T08:04:36;19.97;;;12.43;;
18789;SDS011;9523;42.650;23.386;2022-12-24T08:07:03;20.37;;;12.13;;
18789;SDS011;9523;42.650;23.386;2022-12-24T08:09:31;20.73;;;11.93;;
18789;SDS011;9523;42.650;23.386;2022-12-24T08:11:59;18.87;;;11.83;;
18789;SDS011;9523;42.650;23.386;2022-12-24T08:14:26;20.40;;;11.93;;
18789;SDS011;9523;42.650;23.386;2022-12-24T08:16:53;20.93;;;12.27;;
18789;SDS011;9523;42.650;23.386;2022-12-24T08:19:20;19.63;;;13.33;;
18789;SDS011;9523;42.650;23.386;2022-12-24T08:21:48;20.03;;;12.90;;
18789;SDS011;9523;42.650;23.386;2022-12-24T08:24:15;21.70;;;13.47;;
18789;SDS011;9523;42.650;23.386;2022-12-24T08:26:42;24.93;;;14.00;;
18789;SDS011;9523;42.650;23.386;2022-12-24T08:29:09;23.97;;;14.73;;
18789;SDS011;9523;42.650;23.386;2022-12-24T08:31:36;31.20;;;17.40;;
18789;SDS011;9523;42.650;23.386;2022-12-24T08:34:03;30.33;;;17.23;;
18789;SDS011;9523;42.650;23.386;2022-12-24T08:36:31;31.63;;;17.87;;
18789;SDS011;9523;42.650;23.386;2022-12-24T08:38:59;32.47;;;19.03;;
18789;SDS011;9523;42.650;23.386;2022-12-24T08:41:27;32.63;;;18.53;;
18789;SDS011;9523;42.650;23.386;2022-12-24T08:43:54;32.63;;;19.10;;
18789;SDS011;9523;42.650;23.386;2022-12-24T08:46:21;30.93;;;18.77;;
18789;SDS011;9523;42.650;23.386;2022-12-24T08:48:48;37.73;;;20.13;;
18789;SDS011;9523;42.650;23.386;2022-12-24T08:51:15;34.80;;;20.37;;
18789;SDS011;9523;42.650;23.386;2022-12-24T08:53:43;34.53;;;20.20;;
18789;SDS011;9523;42.650;23.386;2022-12-24T08:56:12;33.67;;;19.63;;
18789;SDS011;9523;42.650;23.386;2022-12-24T08:58:39;35.50;;;20.07;;
18789;SDS011;9523;42.650;23.386;2022-12-24T09:01:09;34.03;;;19.77;;
18789;SDS011;9523;42.650;23.386;2022-12-24T09:03:37;30.97;;;19.23;;
18789;SDS011;9523;42.650;23.386;2022-12-24T09:06:05;31.90;;;19.50;;
18789;SDS011;9523;42.650;23.386;2022-12-24T09:08:32;31.80;;;20.27;;
18789;SDS011;9523;42.650;23.386;2022-12-24T09:11:01;38.17;;;22.07;;
18789;SDS011;9523;42.650;23.386;2022-12-24T09:13:31;33.43;;;20.00;;
18789;SDS011;9523;42.650;23.386;2022-12-24T09:16:01;35.57;;;20.50;;
18789;SDS011;9523;42.650;23.386;2022-12-24T09:18:29;32.13;;;19.83;;
18789;SDS011;9523;42.650;23.386;2022-12-24T09:20:59;29.73;;;18.03;;
18789;SDS011;9523;42.650;23.386;2022-12-24T09:23:26;33.57;;;18.37;;
18789;SDS011;9523;42.650;23.386;2022-12-24T09:25:54;37.90;;;21.00;;
18789;SDS011;9523;42.650;23.386;2022-12-24T09:28:21;40.77;;;22.57;;
18789;SDS011;9523;42.650;23.386;2022-12-24T09:31:00;40.00;;;23.20;;
18789;SDS011;9523;42.650;23.386;2022-12-24T09:33:28;38.70;;;23.87;;
18789;SDS011;9523;42.650;23.386;2022-12-24T09:35:56;43.37;;;23.57;;
18789;SDS011;9523;42.650;23.386;2022-12-24T09:38:23;43.43;;;24.57;;
18789;SDS011;9523;42.650;23.386;2022-12-24T09:40:50;48.77;;;25.50;;
18789;SDS011;9523;42.650;23.386;2022-12-24T09:43:19;46.47;;;25.03;;
18789;SDS011;9523;42.650;23.386;2022-12-24T09:45:49;48.53;;;25.17;;
18789;SDS011;9523;42.650;23.386;2022-12-24T09:48:29;43.00;;;25.93;;
18789;SDS011;9523;42.650;23.386;2022-12-24T09:50:59;49.30;;;26.00;;
18789;SDS011;9523;42.650;23.386;2022-12-24T09:53:32;44.07;;;24.00;;
18789;SDS011;9523;42.650;23.386;2022-12-24T09:56:05;44.53;;;25.27;;
18789;SDS011;9523;42.650;23.386;2022-12-24T09:58:38;45.60;;;26.97;;
18789;SDS011;9523;42.650;23.386;2022-12-24T10:01:09;45.33;;;26.50;;
18789;SDS011;9523;42.650;23.386;2022-12-24T10:03:39;44.90;;;25.93;;
18789;SDS011;9523;42.650;23.386;2022-12-24T10:06:08;49.30;;;27.17;;
18789;SDS011;9523;42.650;23.386;2022-12-24T10:08:42;49.47;;;26.77;;
18789;SDS011;9523;42.650;23.386;2022-12-24T10:11:22;44.53;;;27.00;;
18789;SDS011;9523;42.650;23.386;2022-12-24T10:14:03;50.70;;;28.93;;
18789;SDS011;9523;42.650;23.386;2022-12-24T10:16:40;52.47;;;28.10;;
18789;SDS011;9523;42.650;23.386;2022-12-24T10:19:19;46.23;;;27.60;;
18789;SDS011;9523;42.650;23.386;2022-12-24T10:21:54;53.73;;;28.97;;
18789;SDS011;9523;42.650;23.386;2022-12-24T10:24:31;52.70;;;28.83;;
18789;SDS011;9523;42.650;23.386;2022-12-24T10:27:05;189.63;;;84.63;;
18789;SDS011;9523;42.650;23.386;2022-12-24T10:29:39;100.53;;;45.47;;
18789;SDS011;9523;42.650;23.386;2022-12-24T10:32:10;265.53;;;109.80;;
18789;SDS011;9523;42.650;23.386;2022-12-24T10:34:43;259.43;;;109.83;;
18789;SDS011;9523;42.650;23.386;2022-12-24T10:37:15;63.97;;;32.53;;
18789;SDS011;9523;42.650;23.386;2022-12-24T10:39:45;55.67;;;30.00;;
18789;SDS011;9523;42.650;23.386;2022-12-24T10:42:12;56.20;;;31.10;;
18789;SDS011;9523;42.650;23.386;2022-12-24T10:44:40;53.00;;;30.63;;
18789;SDS011;9523;42.650;23.386;2022-12-24T10:47:11;52.53;;;29.00;;
18789;SDS011;9523;42.650;23.386;2022-12-24T10:49:41;54.20;;;29.10;;
18789;SDS011;9523;42.650;23.386;2022-12-24T10:52:14;54.37;;;27.83;;
18789;SDS011;9523;42.650;23.386;2022-12-24T10:57:33;55.47;;;29.37;;
18789;SDS011;9523;42.650;23.386;2022-12-24T11:00:00;50.73;;;29.10;;
18789;SDS011;9523;42.650;23.386;2022-12-24T11:02:28;57.63;;;28.03;;
18789;SDS011;9523;42.650;23.386;2022-12-24T11:04:58;47.93;;;28.23;;
18789;SDS011;9523;42.650;23.386;2022-12-24T11:07:27;52.13;;;28.73;;
18789;SDS011;9523;42.650;23.386;2022-12-24T11:09:56;48.50;;;29.07;;
18789;SDS011;9523;42.650;23.386;2022-12-24T11:12:25;50.10;;;29.23;;
18789;SDS011;9523;42.650;23.386;2022-12-24T11:15:00;50.40;;;28.87;;
18789;SDS011;9523;42.650;23.386;2022-12-24T11:17:29;51.03;;;29.20;;
18789;SDS011;9523;42.650;23.386;2022-12-24T11:19:58;47.33;;;27.33;;
18789;SDS011;9523;42.650;23.386;2022-12-24T11:22:27;47.30;;;27.70;;
18789;SDS011;9523;42.650;23.386;2022-12-24T11:24:57;51.70;;;27.40;;
18789;SDS011;9523;42.650;23.386;2022-12-24T11:27:32;45.27;;;26.10;;
18789;SDS011;9523;42.650;23.386;2022-12-24T11:30:21;38.97;;;25.50;;
18789;SDS011;9523;42.650;23.386;2022-12-24T11:33:09;39.23;;;23.40;;
18789;SDS011;9523;42.650;23.386;2022-12-24T11:35:52;38.47;;;24.50;;
18789;SDS011;9523;42.650;23.386;2022-12-24T11:38:25;48.30;;;24.80;;
18789;SDS011;9523;42.650;23.386;2022-12-24T11:40:58;45.53;;;26.97;;
18789;SDS011;9523;42.650;23.386;2022-12-24T11:43:36;45.13;;;27.13;;
18789;SDS011;9523;42.650;23.386;2022-12-24T11:49:14;47.23;;;27.13;;
18789;SDS011;9523;42.650;23.386;2022-12-24T11:51:59;46.10;;;27.00;;
18789;SDS011;9523;42.650;23.386;2022-12-24T11:54:38;43.13;;;25.93;;
18789;SDS011;9523;42.650;23.386;2022-12-24T11:57:13;50.43;;;27.17;;
18789;SDS011;9523;42.650;23.386;2022-12-24T11:59:44;38.30;;;24.70;;
18789;SDS011;9523;42.650;23.386;2022-12-24T12:02:15;44.17;;;25.93;;
18789;SDS011;9523;42.650;23.386;2022-12-24T12:04:48;44.07;;;24.50;;
18789;SDS011;9523;42.650;23.386;2022-12-24T12:07:21;45.80;;;27.50;;
18789;SDS011;9523;42.650;23.386;2022-12-24T12:09:52;44.03;;;25.60;;
18789;SDS011;9523;42.650;23.386;2022-12-24T12:12:23;47.83;;;26.73;;
18789;SDS011;9523;42.650;23.386;2022-12-24T12:14:53;47.37;;;27.27;;
18789;SDS011;9523;42.650;23.386;2022-12-24T12:17:26;48.33;;;27.27;;
18789;SDS011;9523;42.650;23.386;2022-12-24T12:19:59;48.07;;;26.77;;
18789;SDS011;9523;42.650;23.386;2022-12-24T12:22:31;35.27;;;22.27;;
18789;SDS011;9523;42.650;23.386;2022-12-24T12:25:04;34.83;;;21.40;;
18789;SDS011;9523;42.650;23.386;2022-12-24T12:27:45;41.13;;;24.40;;
18789;SDS011;9523;42.650;23.386;2022-12-24T12:30:15;45.70;;;25.73;;
18789;SDS011;9523;42.650;23.386;2022-12-24T12:32:47;300.47;;;128.90;;
18789;SDS011;9523;42.650;23.386;2022-12-24T12:35:22;51.80;;;29.93;;
18789;SDS011;9523;42.650;23.386;2022-12-24T12:37:56;69.53;;;39.40;;
18789;SDS011;9523;42.650;23.386;2022-12-24T12:40:31;47.00;;;25.20;;
18789;SDS011;9523;42.650;23.386;2022-12-24T12:43:05;44.07;;;25.07;;
18789;SDS011;9523;42.650;23.386;2022-12-24T12:45:42;67.97;;;34.57;;
18789;SDS011;9523;42.650;23.386;2022-12-24T12:48:22;74.73;;;40.10;;
18789;SDS011;9523;42.650;23.386;2022-12-24T12:51:04;57.70;;;33.03;;
18789;SDS011;9523;42.650;23.386;2022-12-24T12:53:44;245.00;;;109.90;;
18789;SDS011;9523;42.650;23.386;2022-12-24T12:56:33;147.37;;;71.70;;
18789;SDS011;9523;42.650;23.386;2022-12-24T12:59:02;100.23;;;49.63;;
18789;SDS011;9523;42.650;23.386;2022-12-24T13:01:35;51.20;;;28.13;;
18789;SDS011;9523;42.650;23.386;2022-12-24T13:04:10;40.00;;;23.37;;
18789;SDS011;9523;42.650;23.386;2022-12-24T13:09:56;38.70;;;23.63;;
18789;SDS011;9523;42.650;23.386;2022-12-24T13:12:43;36.67;;;22.73;;
18789;SDS011;9523;42.650;23.386;2022-12-24T13:18:23;39.27;;;23.57;;
18789;SDS011;9523;42.650;23.386;2022-12-24T13:20:59;41.80;;;24.63;;
18789;SDS011;9523;42.650;23.386;2022-12-24T13:23:26;37.93;;;22.83;;
18789;SDS011;9523;42.650;23.386;2022-12-24T13:25:55;44.17;;;24.03;;
18789;SDS011;9523;42.650;23.386;2022-12-24T13:28:30;43.30;;;23.67;;
18789;SDS011;9523;42.650;23.386;2022-12-24T13:31:22;41.33;;;25.50;;
18789;SDS011;9523;42.650;23.386;2022-12-24T13:33:52;49.63;;;28.70;;
18789;SDS011;9523;42.650;23.386;2022-12-24T13:36:20;49.23;;;29.83;;
18789;SDS011;9523;42.650;23.386;2022-12-24T13:38:48;53.40;;;28.53;;
18789;SDS011;9523;42.650;23.386;2022-12-24T13:44:24;47.40;;;28.57;;
18789;SDS011;9523;42.650;23.386;2022-12-24T13:47:00;53.43;;;29.87;;
18789;SDS011;9523;42.650;23.386;2022-12-24T13:49:34;50.10;;;29.43;;
18789;SDS011;9523;42.650;23.386;2022-12-24T13:52:07;49.37;;;29.53;;
18789;SDS011;9523;42.650;23.386;2022-12-24T13:54:44;49.93;;;31.40;;
18789;SDS011;9523;42.650;23.386;2022-12-24T13:57:23;53.57;;;30.67;;
18789;SDS011;9523;42.650;23.386;2022-12-24T13:59:57;49.47;;;31.27;;
18789;SDS011;9523;42.650;23.386;2022-12-24T14:02:26;53.83;;;30.27;;
18789;SDS011;9523;42.650;23.386;2022-12-24T14:04:59;52.60;;;31.13;;
18789;SDS011;9523;42.650;23.386;2022-12-24T14:07:30;51.23;;;29.43;;
18789;SDS011;9523;42.650;23.386;2022-12-24T14:09:58;47.97;;;28.00;;
18789;SDS011;9523;42.650;23.386;2022-12-24T14:12:30;44.90;;;27.47;;
18789;SDS011;9523;42.650;23.386;2022-12-24T14:18:27;48.27;;;27.63;;
18789;SDS011;9523;42.650;23.386;2022-12-24T14:20:58;47.60;;;28.23;;
18789;SDS011;9523;42.650;23.386;2022-12-24T14:23:34;46.83;;;29.03;;
18789;SDS011;9523;42.650;23.386;2022-12-24T14:26:12;50.13;;;30.57;;
18789;SDS011;9523;42.650;23.386;2022-12-24T14:28:42;49.43;;;30.87;;
18789;SDS011;9523;42.650;23.386;2022-12-24T14:31:14;57.10;;;33.17;;
18789;SDS011;9523;42.650;23.386;2022-12-24T14:33:43;55.97;;;33.70;;
18789;SDS011;9523;42.650;23.386;2022-12-24T14:36:11;61.13;;;34.30;;
18789;SDS011;9523;42.650;23.386;2022-12-24T14:38:41;61.50;;;35.03;;
18789;SDS011;9523;42.650;23.386;2022-12-24T14:44:14;70.47;;;37.10;;
18789;SDS011;9523;42.650;23.386;2022-12-24T14:46:49;61.30;;;36.27;;
18789;SDS011;9523;42.650;23.386;2022-12-24T14:49:28;70.27;;;39.67;;
18789;SDS011;9523;42.650;23.386;2022-12-24T14:52:06;62.73;;;36.37;;
18789;SDS011;9523;42.650;23.386;2022-12-24T14:54:45;55.17;;;34.97;;
18789;SDS011;9523;42.650;23.386;2022-12-24T14:57:16;58.13;;;34.00;;
18789;SDS011;9523;42.650;23.386;2022-12-24T14:59:48;55.97;;;31.83;;
18789;SDS011;9523;42.650;23.386;2022-12-24T15:02:24;50.40;;;29.47;;
18789;SDS011;9523;42.650;23.386;2022-12-24T15:05:06;44.33;;;26.40;;
18789;SDS011;9523;42.650;23.386;2022-12-24T15:07:38;38.03;;;23.73;;
18789;SDS011;9523;42.650;23.386;2022-12-24T15:10:23;35.77;;;20.67;;